createdAt,value
2023-05-06T00:04:33.410Z,13.1
2023-05-06T00:09:29.927Z,12.8
2023-05-06T00:14:26.970Z,12.6
2023-05-06T00:20:37.066Z,12.4
2023-05-06T00:25:33.649Z,12.3
2023-05-06T00:30:30.228Z,12.6
2023-05-06T00:35:26.661Z,12.8
2023-05-06T00:41:37.296Z,12.9
2023-05-06T00:46:33.869Z,12.8
2023-05-06T00:51:30.441Z,12.8
2023-05-06T00:56:27.025Z,12.6
2023-05-06T01:02:46.179Z,12.2
2023-05-06T01:07:34.148Z,12.3
2023-05-06T01:12:30.807Z,12.5
2023-05-06T01:17:27.248Z,12.3
2023-05-06T01:23:37.940Z,12.3
2023-05-06T01:28:34.417Z,12.2
2023-05-06T01:33:31.016Z,12.1
2023-05-06T01:38:27.510Z,12.1
2023-05-06T01:44:38.206Z,12.1
2023-05-06T01:49:34.682Z,12
2023-05-06T01:54:31.187Z,11.9
2023-05-06T01:59:29.525Z,11.8
2023-05-06T02:05:38.424Z,11.8
2023-05-06T02:10:34.966Z,11.6
2023-05-06T02:15:31.504Z,11.7
2023-05-06T02:20:28.053Z,11.8
2023-05-06T02:26:38.777Z,11.7
2023-05-06T02:31:35.314Z,11.6
2023-05-06T02:36:31.806Z,11.6
2023-05-06T02:47:39.031Z,11.6
2023-05-06T02:52:35.464Z,11.9
2023-05-06T02:57:32.088Z,11.8
2023-05-06T03:02:28.797Z,11.8
2023-05-06T03:08:39.224Z,11.6
2023-05-06T03:13:35.795Z,11.4
2023-05-06T03:18:32.327Z,11.4
2023-05-06T03:23:28.906Z,11.1
2023-05-06T03:29:39.582Z,11.1
2023-05-06T03:34:36.020Z,11
2023-05-06T03:39:32.545Z,11.2
2023-05-06T03:44:29.366Z,11.2
2023-05-06T03:50:39.769Z,11.1
2023-05-06T03:55:36.294Z,11.2
2023-05-06T04:00:32.926Z,11.3
2023-05-06T04:05:29.379Z,11.3
2023-05-06T04:11:40.050Z,11.1
2023-05-06T04:16:36.655Z,11.2
2023-05-06T04:21:33.137Z,11.1
2023-05-06T04:26:29.732Z,11.2
2023-05-06T04:32:40.372Z,11.1
2023-05-06T04:36:30.929Z,11.1
2023-05-06T04:47:38.164Z,11.4
2023-05-06T04:52:34.580Z,11.6
2023-05-06T04:57:31.089Z,11.7
2023-05-06T05:02:27.736Z,11.6
2023-05-06T05:08:38.347Z,11.7
2023-05-06T05:13:34.860Z,11.8
2023-05-06T05:18:31.396Z,11.7
2023-05-06T05:23:28.013Z,11.9
2023-05-06T05:29:38.591Z,12
2023-05-06T05:34:35.118Z,12
2023-05-06T05:39:31.601Z,12.1
2023-05-06T05:44:28.172Z,12.2
2023-05-06T05:50:38.867Z,12.6
2023-05-06T05:55:35.393Z,12.6
2023-05-06T06:00:31.942Z,12.6
2023-05-06T06:05:28.491Z,12.7
2023-05-06T06:11:39.268Z,12.8
2023-05-06T06:16:35.774Z,13.1
2023-05-06T06:21:32.183Z,13.4
2023-05-06T06:26:28.772Z,13.6
2023-05-06T06:32:39.421Z,13.7
2023-05-06T06:37:35.993Z,13.9
2023-05-06T06:47:29.098Z,14.2
2023-05-06T06:53:39.676Z,14.3
2023-05-06T06:58:36.162Z,14.5
2023-05-06T07:03:32.733Z,14.5
2023-05-06T07:08:29.269Z,14.7
2023-05-06T07:14:39.977Z,14.9
2023-05-06T07:19:36.540Z,15.3
2023-05-06T07:24:33.000Z,15.5
2023-05-06T07:29:29.571Z,15.7
2023-05-06T07:35:40.232Z,15.9
2023-05-06T07:40:36.767Z,16
2023-05-06T07:45:33.336Z,15.9
2023-05-06T07:50:29.759Z,16.5
2023-05-06T07:56:40.495Z,16.7
2023-05-06T08:01:37.054Z,17
2023-05-06T08:06:33.526Z,17.1
2023-05-06T08:11:30.068Z,17.5
2023-05-06T08:17:40.826Z,17.6
2023-05-06T08:22:37.339Z,18
2023-05-06T08:27:33.800Z,18.2
2023-05-06T08:32:30.328Z,18.2
2023-05-06T08:37:26.948Z,18
2023-05-06T08:43:37.674Z,19.3
2023-05-06T08:53:30.587Z,19.6
2023-05-06T08:58:27.130Z,19.6
2023-05-06T09:04:37.894Z,19.7
2023-05-06T09:09:34.442Z,19.4
2023-05-06T09:14:30.821Z,20.1
2023-05-06T09:25:38.109Z,21
2023-05-06T09:30:34.639Z,20.5
2023-05-06T09:35:31.223Z,21.3
2023-05-06T09:40:27.710Z,21.3
2023-05-06T09:46:38.694Z,21
2023-05-06T09:51:34.950Z,21.8
2023-05-06T09:56:31.371Z,22.6
2023-05-06T10:01:36.013Z,21.5
2023-05-06T10:07:38.682Z,21.9
2023-05-06T10:12:36.722Z,21.9
2023-05-06T10:17:31.868Z,22.4
2023-05-06T10:22:28.311Z,22.5
2023-05-06T10:28:38.987Z,23.5
2023-05-06T10:33:35.576Z,23.2
2023-05-06T10:38:31.934Z,24.2
2023-05-06T10:43:28.580Z,23.3
2023-05-06T10:49:39.275Z,23.4
2023-05-06T10:54:35.781Z,23.8
2023-05-06T10:59:32.227Z,23.5
2023-05-06T11:04:28.769Z,23.2
2023-05-06T11:10:39.468Z,23.4
2023-05-06T11:15:35.948Z,24
2023-05-06T11:20:32.579Z,24.8
2023-05-06T11:25:29.028Z,25.4
2023-05-06T11:31:39.699Z,24.6
2023-05-06T11:36:36.420Z,24.9
2023-05-06T11:41:32.801Z,23.8
2023-05-06T11:46:29.360Z,25.1
2023-05-06T11:52:39.957Z,25.8
2023-05-06T11:57:36.495Z,27.7
2023-05-06T12:02:33.170Z,28.6
2023-05-06T12:07:29.567Z,27.2
2023-05-06T12:13:40.279Z,29
2023-05-06T12:18:36.785Z,27.9
2023-05-06T12:23:33.365Z,27.4
2023-05-06T12:28:29.954Z,27.5
2023-05-06T12:34:40.487Z,26.8
2023-05-06T12:39:37.044Z,26.1
2023-05-06T12:44:33.590Z,25
2023-05-06T12:49:30.239Z,25.7
2023-05-06T12:54:35.283Z,27.5
2023-05-06T12:59:31.476Z,27.3
2023-05-06T13:04:28.095Z,24.9
2023-05-06T13:10:38.525Z,23.5
2023-05-06T13:15:35.055Z,23.2
2023-05-06T13:20:31.800Z,23.2
2023-05-06T13:25:28.174Z,23.6
2023-05-06T13:31:38.800Z,22.3
2023-05-06T13:36:35.565Z,22
2023-05-06T13:41:31.924Z,21.6
2023-05-06T13:52:39.076Z,21.8
2023-05-06T13:57:35.622Z,22.1
2023-05-06T14:02:32.257Z,22
2023-05-06T14:07:28.749Z,22.5
2023-05-06T14:13:39.381Z,22.1
2023-05-06T14:18:35.994Z,22
2023-05-06T14:23:32.897Z,21.4
2023-05-06T14:28:28.974Z,19
2023-05-06T14:34:39.630Z,17
2023-05-06T14:39:36.209Z,16.5
2023-05-06T14:44:32.734Z,16.4
2023-05-06T14:49:29.203Z,16.6
2023-05-06T14:55:40.123Z,16.6
2023-05-06T15:00:36.543Z,16.5
2023-05-06T15:04:19.084Z,16.5
2023-05-06T15:05:33.029Z,16.5
2023-05-06T15:10:29.545Z,16.8
2023-05-06T15:15:26.071Z,16.9
2023-05-06T15:21:36.699Z,17
2023-05-06T15:26:33.214Z,17.5
2023-05-06T15:31:30.219Z,17.7
2023-05-06T15:37:40.540Z,18
2023-05-06T15:42:36.972Z,17.7
2023-05-06T15:47:33.689Z,17.4
2023-05-06T15:52:30.077Z,17.6
2023-05-06T15:58:40.677Z,17.7
2023-05-06T16:03:37.323Z,17.7
2023-05-06T16:08:33.840Z,17.4
2023-05-06T16:13:30.240Z,17.5
2023-05-06T16:18:28.951Z,17.2
2023-05-06T16:24:37.501Z,17.5
2023-05-06T16:29:34.057Z,17.5
2023-05-06T16:34:30.609Z,17.4
2023-05-06T16:39:27.143Z,17.6
2023-05-06T16:45:37.896Z,17.6
2023-05-06T16:50:34.357Z,17.5
2023-05-06T16:55:30.821Z,17.5
2023-05-06T17:00:28.460Z,17.5
2023-05-06T17:06:38.202Z,17.8
2023-05-06T17:11:34.689Z,17.5
2023-05-06T17:16:31.442Z,17.4
2023-05-06T17:21:27.642Z,16.9
2023-05-06T17:27:38.313Z,17
2023-05-06T17:32:34.845Z,17.3
2023-05-06T17:37:31.356Z,17.3
2023-05-06T17:42:28.016Z,17.4
2023-05-06T17:48:38.935Z,17.1
2023-05-06T17:53:35.363Z,17.2
2023-05-06T17:58:31.725Z,17.2
2023-05-06T18:03:28.217Z,17.3
2023-05-06T18:09:38.818Z,17.1
2023-05-06T18:14:35.465Z,17
2023-05-06T18:19:31.913Z,16.8
2023-05-06T18:24:28.585Z,16.8
2023-05-06T18:30:39.259Z,16.6
2023-05-06T18:35:35.631Z,16.5
2023-05-06T18:40:32.142Z,16.5
2023-05-06T18:45:28.936Z,16.3
2023-05-06T18:51:39.391Z,16.2
2023-05-06T18:56:35.961Z,16.2
2023-05-06T19:01:32.716Z,16.2
2023-05-06T19:06:28.983Z,16.2
2023-05-06T19:12:39.697Z,16.2
2023-05-06T19:17:36.237Z,16.2
2023-05-06T19:22:33.008Z,16.3
2023-05-06T19:27:29.488Z,16.2
2023-05-06T19:32:25.826Z,16.1
2023-05-06T19:33:39.917Z,16
2023-05-06T19:38:36.460Z,16.1
2023-05-06T19:43:33.046Z,16.1
2023-05-06T19:48:29.603Z,16.1
2023-05-06T19:54:40.193Z,16.2
2023-05-06T19:59:36.804Z,16.2
2023-05-06T20:04:33.287Z,16.1
2023-05-06T20:09:29.845Z,16
2023-05-06T20:15:40.401Z,16.1
2023-05-06T20:20:36.960Z,16.1
2023-05-06T20:25:33.643Z,15.8
2023-05-06T20:30:30.184Z,15.8
2023-05-06T20:35:26.768Z,15.7
2023-05-06T20:41:37.348Z,15.6
2023-05-06T20:46:33.765Z,15.3
2023-05-06T20:51:30.460Z,15.4
2023-05-06T20:56:26.896Z,15.2
2023-05-06T21:02:42.794Z,15.1
2023-05-06T21:07:34.217Z,15
2023-05-06T21:12:38.870Z,15
2023-05-06T21:17:35.409Z,14.9
2023-05-06T21:22:31.830Z,14.9
2023-05-06T21:27:28.374Z,15.1
2023-05-06T21:33:39.315Z,14.9
2023-05-06T21:38:35.521Z,14.8
2023-05-06T21:43:33.382Z,14.9
2023-05-06T21:48:28.645Z,15
2023-05-06T21:54:39.850Z,14.8
2023-05-06T21:59:36.012Z,14.6
2023-05-06T22:04:32.307Z,14.5
2023-05-06T22:09:28.895Z,14.5
2023-05-06T22:15:39.582Z,14.7
2023-05-06T22:20:36.135Z,14.6
2023-05-06T22:25:32.567Z,14.6
2023-05-06T22:30:29.127Z,14.7
2023-05-06T22:36:39.848Z,14.5
2023-05-06T22:41:36.376Z,14.5
2023-05-06T22:46:32.929Z,14.5
2023-05-06T22:51:29.481Z,14.5
2023-05-06T22:57:40.045Z,14.6
2023-05-06T23:02:36.697Z,14.5
2023-05-06T23:07:33.283Z,14.6
2023-05-06T23:12:29.712Z,14.3
2023-05-06T23:18:40.260Z,14.4
2023-05-06T23:23:36.904Z,14.4
2023-05-06T23:28:33.429Z,14.2
2023-05-06T23:33:29.944Z,14.4
2023-05-06T23:38:26.432Z,14.4
2023-05-06T23:44:37.103Z,14.4
2023-05-06T23:49:33.648Z,14.4
2023-05-06T23:54:30.183Z,14.6
2023-05-06T23:59:27.014Z,14.5
